sensor_id;sensor_type;location;lat;lon;timestamp;P1;durP1;ratioP1;P2;durP2;ratioP2
43297;SDS011;28892;55.640;37.532;2023-08-24T00:02:21;6.75;;;5.28;;
43297;SDS011;28892;55.640;37.532;2023-08-24T00:04:46;6.63;;;5.15;;
43297;SDS011;28892;55.640;37.532;2023-08-24T00:07:12;7.50;;;5.80;;
43297;SDS011;28892;55.640;37.532;2023-08-24T00:09:38;10.55;;;5.95;;
43297;SDS011;28892;55.640;37.532;2023-08-24T00:15:20;6.93;;;6.22;;
43297;SDS011;28892;55.640;37.532;2023-08-24T00:17:46;8.18;;;6.90;;
43297;SDS011;28892;55.640;37.532;2023-08-24T00:20:12;7.75;;;6.95;;
43297;SDS011;28892;55.640;37.532;2023-08-24T00:22:39;8.80;;;7.05;;
43297;SDS011;28892;55.640;37.532;2023-08-24T00:30:46;8.25;;;7.45;;
43297;SDS011;28892;55.640;37.532;2023-08-24T00:33:12;8.38;;;7.57;;
43297;SDS011;28892;55.640;37.532;2023-08-24T00:35:38;9.00;;;8.13;;
43297;SDS011;28892;55.640;37.532;2023-08-24T00:38:04;9.50;;;7.57;;
43297;SDS011;28892;55.640;37.532;2023-08-24T00:40:30;8.55;;;7.75;;
43297;SDS011;28892;55.640;37.532;2023-08-24T00:42:55;8.65;;;7.82;;
43297;SDS011;28892;55.640;37.532;2023-08-24T00:45:21;7.80;;;7.03;;
43297;SDS011;28892;55.640;37.532;2023-08-24T00:47:48;8.45;;;7.70;;
43297;SDS011;28892;55.640;37.532;2023-08-24T00:50:15;8.57;;;7.40;;
43297;SDS011;28892;55.640;37.532;2023-08-24T00:52:42;8.68;;;7.35;;
43297;SDS011;28892;55.640;37.532;2023-08-24T00:55:09;8.13;;;7.15;;
43297;SDS011;28892;55.640;37.532;2023-08-24T00:57:35;7.70;;;6.80;;
43297;SDS011;28892;55.640;37.532;2023-08-24T01:00:04;8.57;;;6.60;;
43297;SDS011;28892;55.640;37.532;2023-08-24T01:02:33;7.07;;;6.38;;
43297;SDS011;28892;55.640;37.532;2023-08-24T01:05:33;6.93;;;6.28;;
43297;SDS011;28892;55.640;37.532;2023-08-24T01:07:52;6.85;;;6.15;;
43297;SDS011;28892;55.640;37.532;2023-08-24T01:10:18;7.60;;;6.75;;
43297;SDS011;28892;55.640;37.532;2023-08-24T01:12:52;6.57;;;5.97;;
43297;SDS011;28892;55.640;37.532;2023-08-24T01:18:04;7.90;;;7.10;;
43297;SDS011;28892;55.640;37.532;2023-08-24T01:20:34;7.72;;;7.00;;
43297;SDS011;28892;55.640;37.532;2023-08-24T01:26:24;7.28;;;6.57;;
43297;SDS011;28892;55.640;37.532;2023-08-24T01:28:31;7.75;;;7.03;;
43297;SDS011;28892;55.640;37.532;2023-08-24T01:30:59;7.65;;;7.03;;
43297;SDS011;28892;55.640;37.532;2023-08-24T01:36:21;7.43;;;6.70;;
43297;SDS011;28892;55.640;37.532;2023-08-24T01:38:53;7.40;;;6.80;;
43297;SDS011;28892;55.640;37.532;2023-08-24T01:41:28;7.10;;;6.13;;
43297;SDS011;28892;55.640;37.532;2023-08-24T01:43:59;7.07;;;6.47;;
43297;SDS011;28892;55.640;37.532;2023-08-24T01:46:28;7.10;;;6.50;;
43297;SDS011;28892;55.640;37.532;2023-08-24T01:48:57;6.90;;;6.22;;
43297;SDS011;28892;55.640;37.532;2023-08-24T01:51:25;7.65;;;6.80;;
43297;SDS011;28892;55.640;37.532;2023-08-24T01:53:52;7.45;;;6.68;;
43297;SDS011;28892;55.640;37.532;2023-08-24T01:56:18;7.18;;;6.47;;
43297;SDS011;28892;55.640;37.532;2023-08-24T01:58:47;6.78;;;6.18;;
43297;SDS011;28892;55.640;37.532;2023-08-24T02:01:14;6.40;;;5.82;;
43297;SDS011;28892;55.640;37.532;2023-08-24T02:03:40;6.60;;;6.05;;
43297;SDS011;28892;55.640;37.532;2023-08-24T02:06:06;6.38;;;5.72;;
43297;SDS011;28892;55.640;37.532;2023-08-24T02:08:32;6.65;;;5.97;;
43297;SDS011;28892;55.640;37.532;2023-08-24T02:10:58;6.15;;;5.65;;
43297;SDS011;28892;55.640;37.532;2023-08-24T02:13:24;6.65;;;5.93;;
43297;SDS011;28892;55.640;37.532;2023-08-24T02:16:07;6.15;;;5.55;;
43297;SDS011;28892;55.640;37.532;2023-08-24T02:18:37;6.30;;;5.47;;
43297;SDS011;28892;55.640;37.532;2023-08-24T02:21:22;6.30;;;5.70;;
43297;SDS011;28892;55.640;37.532;2023-08-24T02:23:48;6.00;;;5.40;;
43297;SDS011;28892;55.640;37.532;2023-08-24T02:26:14;7.25;;;5.78;;
43297;SDS011;28892;55.640;37.532;2023-08-24T02:28:40;5.97;;;5.38;;
43297;SDS011;28892;55.640;37.532;2023-08-24T02:31:09;6.18;;;5.57;;
43297;SDS011;28892;55.640;37.532;2023-08-24T02:33:35;5.82;;;5.32;;
43297;SDS011;28892;55.640;37.532;2023-08-24T02:36:02;6.03;;;5.40;;
43297;SDS011;28892;55.640;37.532;2023-08-24T02:38:29;5.55;;;4.93;;
43297;SDS011;28892;55.640;37.532;2023-08-24T02:41:04;5.97;;;5.38;;
43297;SDS011;28892;55.640;37.532;2023-08-24T02:43:31;5.72;;;5.22;;
43297;SDS011;28892;55.640;37.532;2023-08-24T02:46:02;5.63;;;5.10;;
43297;SDS011;28892;55.640;37.532;2023-08-24T02:48:29;5.50;;;5.00;;
43297;SDS011;28892;55.640;37.532;2023-08-24T02:50:56;5.47;;;4.97;;
43297;SDS011;28892;55.640;37.532;2023-08-24T02:53:23;5.88;;;5.30;;
43297;SDS011;28892;55.640;37.532;2023-08-24T02:55:49;5.30;;;4.80;;
43297;SDS011;28892;55.640;37.532;2023-08-24T02:58:15;7.03;;;5.03;;
43297;SDS011;28892;55.640;37.532;2023-08-24T03:00:41;5.22;;;4.60;;
43297;SDS011;28892;55.640;37.532;2023-08-24T03:03:07;5.55;;;4.80;;
43297;SDS011;28892;55.640;37.532;2023-08-24T03:05:33;5.60;;;5.03;;
43297;SDS011;28892;55.640;37.532;2023-08-24T03:07:59;5.70;;;4.80;;
43297;SDS011;28892;55.640;37.532;2023-08-24T03:10:25;6.45;;;5.13;;
43297;SDS011;28892;55.640;37.532;2023-08-24T03:12:50;6.07;;;5.00;;
43297;SDS011;28892;55.640;37.532;2023-08-24T03:15:16;5.20;;;4.70;;
43297;SDS011;28892;55.640;37.532;2023-08-24T03:17:42;5.70;;;5.20;;
43297;SDS011;28892;55.640;37.532;2023-08-24T03:20:08;5.75;;;4.90;;
43297;SDS011;28892;55.640;37.532;2023-08-24T03:22:36;6.65;;;5.07;;
43297;SDS011;28892;55.640;37.532;2023-08-24T03:25:05;6.82;;;5.38;;
43297;SDS011;28892;55.640;37.532;2023-08-24T03:27:31;6.07;;;4.70;;
43297;SDS011;28892;55.640;37.532;2023-08-24T03:29:57;5.47;;;4.75;;
43297;SDS011;28892;55.640;37.532;2023-08-24T03:32:24;5.00;;;4.57;;
43297;SDS011;28892;55.640;37.532;2023-08-24T03:34:50;5.30;;;4.78;;
43297;SDS011;28892;55.640;37.532;2023-08-24T03:37:16;5.13;;;4.72;;
43297;SDS011;28892;55.640;37.532;2023-08-24T03:45:26;5.35;;;4.63;;
43297;SDS011;28892;55.640;37.532;2023-08-24T03:47:52;5.13;;;4.50;;
43297;SDS011;28892;55.640;37.532;2023-08-24T03:50:18;5.90;;;4.90;;
43297;SDS011;28892;55.640;37.532;2023-08-24T03:52:44;5.18;;;4.70;;
43297;SDS011;28892;55.640;37.532;2023-08-24T03:55:10;5.28;;;4.78;;
43297;SDS011;28892;55.640;37.532;2023-08-24T03:57:48;5.70;;;5.03;;
43297;SDS011;28892;55.640;37.532;2023-08-24T04:00:26;5.88;;;5.30;;
43297;SDS011;28892;55.640;37.532;2023-08-24T04:02:52;5.75;;;5.10;;
43297;SDS011;28892;55.640;37.532;2023-08-24T04:05:23;7.50;;;5.32;;
43297;SDS011;28892;55.640;37.532;2023-08-24T04:07:52;6.75;;;5.10;;
43297;SDS011;28892;55.640;37.532;2023-08-24T04:10:29;5.40;;;4.90;;
43297;SDS011;28892;55.640;37.532;2023-08-24T04:13:05;6.47;;;4.82;;
43297;SDS011;28892;55.640;37.532;2023-08-24T04:15:31;5.03;;;4.53;;
43297;SDS011;28892;55.640;37.532;2023-08-24T04:18:00;5.25;;;4.75;;
43297;SDS011;28892;55.640;37.532;2023-08-24T04:20:26;5.72;;;5.15;;
43297;SDS011;28892;55.640;37.532;2023-08-24T04:22:52;5.82;;;4.68;;
43297;SDS011;28892;55.640;37.532;2023-08-24T04:25:18;6.78;;;5.95;;
43297;SDS011;28892;55.640;37.532;2023-08-24T04:27:44;6.28;;;4.85;;
43297;SDS011;28892;55.640;37.532;2023-08-24T04:30:10;6.10;;;4.70;;
43297;SDS011;28892;55.640;37.532;2023-08-24T04:32:37;5.50;;;4.72;;
43297;SDS011;28892;55.640;37.532;2023-08-24T04:35:05;5.43;;;4.93;;
43297;SDS011;28892;55.640;37.532;2023-08-24T04:37:35;4.90;;;4.40;;
43297;SDS011;28892;55.640;37.532;2023-08-24T04:40:04;6.10;;;4.63;;
43297;SDS011;28892;55.640;37.532;2023-08-24T04:42:32;5.00;;;4.43;;
43297;SDS011;28892;55.640;37.532;2023-08-24T04:44:59;5.80;;;4.43;;
43297;SDS011;28892;55.640;37.532;2023-08-24T04:47:29;6.40;;;4.57;;
43297;SDS011;28892;55.640;37.532;2023-08-24T04:49:54;6.40;;;4.65;;
43297;SDS011;28892;55.640;37.532;2023-08-24T04:52:23;6.22;;;4.43;;
43297;SDS011;28892;55.640;37.532;2023-08-24T04:54:49;7.80;;;4.57;;
43297;SDS011;28892;55.640;37.532;2023-08-24T04:57:18;5.47;;;4.93;;
43297;SDS011;28892;55.640;37.532;2023-08-24T04:59:44;8.05;;;4.85;;
43297;SDS011;28892;55.640;37.532;2023-08-24T05:02:10;5.57;;;4.38;;
43297;SDS011;28892;55.640;37.532;2023-08-24T05:04:36;5.72;;;4.38;;
43297;SDS011;28892;55.640;37.532;2023-08-24T05:07:02;6.25;;;5.20;;
43297;SDS011;28892;55.640;37.532;2023-08-24T05:09:28;7.05;;;5.90;;
43297;SDS011;28892;55.640;37.532;2023-08-24T05:11:57;5.93;;;5.07;;
43297;SDS011;28892;55.640;37.532;2023-08-24T05:14:22;7.60;;;6.90;;
43297;SDS011;28892;55.640;37.532;2023-08-24T05:16:54;8.60;;;7.80;;
43297;SDS011;28892;55.640;37.532;2023-08-24T05:19:19;9.35;;;8.27;;
43297;SDS011;28892;55.640;37.532;2023-08-24T05:21:45;9.05;;;8.15;;
43297;SDS011;28892;55.640;37.532;2023-08-24T05:24:15;10.02;;;9.07;;
43297;SDS011;28892;55.640;37.532;2023-08-24T05:26:41;13.00;;;9.75;;
43297;SDS011;28892;55.640;37.532;2023-08-24T05:29:07;10.00;;;9.00;;
43297;SDS011;28892;55.640;37.532;2023-08-24T05:31:33;10.32;;;9.20;;
43297;SDS011;28892;55.640;37.532;2023-08-24T05:33:59;10.00;;;9.02;;
43297;SDS011;28892;55.640;37.532;2023-08-24T05:40:06;9.35;;;8.23;;
43297;SDS011;28892;55.640;37.532;2023-08-24T05:42:38;9.50;;;8.07;;
43297;SDS011;28892;55.640;37.532;2023-08-24T05:45:05;10.35;;;9.32;;
43297;SDS011;28892;55.640;37.532;2023-08-24T05:47:32;10.57;;;9.48;;
43297;SDS011;28892;55.640;37.532;2023-08-24T05:49:57;10.60;;;9.60;;
43297;SDS011;28892;55.640;37.532;2023-08-24T05:52:23;11.55;;;9.75;;
43297;SDS011;28892;55.640;37.532;2023-08-24T05:54:49;11.15;;;9.93;;
43297;SDS011;28892;55.640;37.532;2023-08-24T05:57:15;10.98;;;9.98;;
43297;SDS011;28892;55.640;37.532;2023-08-24T05:59:44;10.35;;;9.25;;
43297;SDS011;28892;55.640;37.532;2023-08-24T06:02:10;12.32;;;9.35;;
43297;SDS011;28892;55.640;37.532;2023-08-24T06:04:35;10.23;;;9.32;;
43297;SDS011;28892;55.640;37.532;2023-08-24T06:07:01;10.93;;;9.80;;
43297;SDS011;28892;55.640;37.532;2023-08-24T06:09:30;10.77;;;9.75;;
43297;SDS011;28892;55.640;37.532;2023-08-24T06:11:57;10.80;;;9.80;;
43297;SDS011;28892;55.640;37.532;2023-08-24T06:14:23;12.32;;;11.13;;
43297;SDS011;28892;55.640;37.532;2023-08-24T06:16:48;11.07;;;10.07;;
43297;SDS011;28892;55.640;37.532;2023-08-24T06:19:14;12.75;;;11.65;;
43297;SDS011;28892;55.640;37.532;2023-08-24T06:21:40;13.20;;;11.82;;
43297;SDS011;28892;55.640;37.532;2023-08-24T06:24:06;13.15;;;10.57;;
43297;SDS011;28892;55.640;37.532;2023-08-24T06:26:31;12.10;;;10.95;;
43297;SDS011;28892;55.640;37.532;2023-08-24T06:28:58;11.68;;;10.55;;
43297;SDS011;28892;55.640;37.532;2023-08-24T06:31:24;11.52;;;10.32;;
43297;SDS011;28892;55.640;37.532;2023-08-24T06:33:50;11.73;;;10.40;;
43297;SDS011;28892;55.640;37.532;2023-08-24T06:36:15;11.75;;;9.90;;
43297;SDS011;28892;55.640;37.532;2023-08-24T06:38:41;14.52;;;9.98;;
43297;SDS011;28892;55.640;37.532;2023-08-24T06:41:07;11.80;;;8.85;;
43297;SDS011;28892;55.640;37.532;2023-08-24T06:43:37;11.57;;;9.45;;
43297;SDS011;28892;55.640;37.532;2023-08-24T06:46:06;11.98;;;9.82;;
43297;SDS011;28892;55.640;37.532;2023-08-24T06:48:35;8.55;;;7.65;;
43297;SDS011;28892;55.640;37.532;2023-08-24T06:51:02;12.15;;;9.57;;
43297;SDS011;28892;55.640;37.532;2023-08-24T06:53:28;13.88;;;10.30;;
43297;SDS011;28892;55.640;37.532;2023-08-24T06:55:57;12.07;;;9.52;;
43297;SDS011;28892;55.640;37.532;2023-08-24T06:58:23;11.13;;;9.98;;
43297;SDS011;28892;55.640;37.532;2023-08-24T07:00:52;13.15;;;8.73;;
43297;SDS011;28892;55.640;37.532;2023-08-24T07:03:19;11.50;;;8.43;;
43297;SDS011;28892;55.640;37.532;2023-08-24T07:05:49;12.48;;;8.88;;
43297;SDS011;28892;55.640;37.532;2023-08-24T07:08:15;15.25;;;8.68;;
43297;SDS011;28892;55.640;37.532;2023-08-24T07:10:42;12.35;;;9.15;;
43297;SDS011;28892;55.640;37.532;2023-08-24T07:13:10;8.43;;;7.50;;
43297;SDS011;28892;55.640;37.532;2023-08-24T07:15:36;11.88;;;9.35;;
43297;SDS011;28892;55.640;37.532;2023-08-24T07:18:02;13.23;;;7.65;;
43297;SDS011;28892;55.640;37.532;2023-08-24T07:20:29;9.82;;;8.38;;
43297;SDS011;28892;55.640;37.532;2023-08-24T07:22:54;10.85;;;8.90;;
43297;SDS011;28892;55.640;37.532;2023-08-24T07:25:22;19.25;;;10.05;;
43297;SDS011;28892;55.640;37.532;2023-08-24T07:27:50;9.65;;;8.50;;
43297;SDS011;28892;55.640;37.532;2023-08-24T07:30:17;9.50;;;8.00;;
43297;SDS011;28892;55.640;37.532;2023-08-24T07:32:43;14.00;;;8.43;;
43297;SDS011;28892;55.640;37.532;2023-08-24T07:35:12;11.10;;;7.75;;
43297;SDS011;28892;55.640;37.532;2023-08-24T07:37:38;12.07;;;6.88;;
43297;SDS011;28892;55.640;37.532;2023-08-24T07:40:09;12.00;;;6.88;;
43297;SDS011;28892;55.640;37.532;2023-08-24T07:42:44;7.97;;;6.60;;
43297;SDS011;28892;55.640;37.532;2023-08-24T07:45:14;11.27;;;6.85;;
43297;SDS011;28892;55.640;37.532;2023-08-24T07:47:40;7.93;;;6.97;;
43297;SDS011;28892;55.640;37.532;2023-08-24T07:50:09;15.20;;;7.93;;
43297;SDS011;28892;55.640;37.532;2023-08-24T07:52:39;11.15;;;7.65;;
43297;SDS011;28892;55.640;37.532;2023-08-24T07:55:09;10.60;;;7.57;;
43297;SDS011;28892;55.640;37.532;2023-08-24T07:57:40;10.43;;;7.55;;
43297;SDS011;28892;55.640;37.532;2023-08-24T08:00:07;10.45;;;7.93;;
43297;SDS011;28892;55.640;37.532;2023-08-24T08:06:10;11.07;;;7.47;;
43297;SDS011;28892;55.640;37.532;2023-08-24T08:08:40;7.97;;;6.93;;
43297;SDS011;28892;55.640;37.532;2023-08-24T08:11:06;8.43;;;7.40;;
43297;SDS011;28892;55.640;37.532;2023-08-24T08:13:32;8.90;;;7.32;;
43297;SDS011;28892;55.640;37.532;2023-08-24T08:16:02;7.60;;;6.88;;
43297;SDS011;28892;55.640;37.532;2023-08-24T08:18:36;10.90;;;6.57;;
43297;SDS011;28892;55.640;37.532;2023-08-24T08:21:16;8.57;;;6.38;;
43297;SDS011;28892;55.640;37.532;2023-08-24T08:23:48;6.97;;;6.22;;
43297;SDS011;28892;55.640;37.532;2023-08-24T08:26:15;7.13;;;5.95;;
43297;SDS011;28892;55.640;37.532;2023-08-24T08:28:48;9.60;;;6.90;;
43297;SDS011;28892;55.640;37.532;2023-08-24T08:31:17;12.32;;;6.55;;
43297;SDS011;28892;55.640;37.532;2023-08-24T08:33:42;7.72;;;6.28;;
43297;SDS011;28892;55.640;37.532;2023-08-24T08:36:09;7.45;;;6.65;;
43297;SDS011;28892;55.640;37.532;2023-08-24T08:38:42;7.57;;;6.47;;
43297;SDS011;28892;55.640;37.532;2023-08-24T08:41:21;6.93;;;6.05;;
43297;SDS011;28892;55.640;37.532;2023-08-24T08:43:51;9.77;;;6.93;;
43297;SDS011;28892;55.640;37.532;2023-08-24T08:46:17;10.27;;;7.00;;
43297;SDS011;28892;55.640;37.532;2023-08-24T08:48:43;7.45;;;6.72;;
43297;SDS011;28892;55.640;37.532;2023-08-24T08:51:11;9.40;;;7.35;;
43297;SDS011;28892;55.640;37.532;2023-08-24T08:53:39;7.55;;;6.85;;
43297;SDS011;28892;55.640;37.532;2023-08-24T08:56:04;9.50;;;7.43;;
43297;SDS011;28892;55.640;37.532;2023-08-24T08:58:32;8.35;;;7.28;;
43297;SDS011;28892;55.640;37.532;2023-08-24T09:01:02;10.95;;;8.27;;
43297;SDS011;28892;55.640;37.532;2023-08-24T09:03:31;7.97;;;7.18;;
43297;SDS011;28892;55.640;37.532;2023-08-24T09:06:00;9.98;;;8.98;;
43297;SDS011;28892;55.640;37.532;2023-08-24T09:08:27;8.73;;;7.82;;
43297;SDS011;28892;55.640;37.532;2023-08-24T09:10:54;10.05;;;7.70;;
43297;SDS011;28892;55.640;37.532;2023-08-24T09:13:22;8.88;;;7.47;;
43297;SDS011;28892;55.640;37.532;2023-08-24T09:15:48;8.80;;;8.00;;
43297;SDS011;28892;55.640;37.532;2023-08-24T09:18:18;8.55;;;7.55;;
43297;SDS011;28892;55.640;37.532;2023-08-24T09:20:47;10.57;;;8.52;;
43297;SDS011;28892;55.640;37.532;2023-08-24T09:23:19;8.18;;;7.47;;
43297;SDS011;28892;55.640;37.532;2023-08-24T09:25:46;8.38;;;7.68;;
43297;SDS011;28892;55.640;37.532;2023-08-24T09:28:19;8.85;;;8.00;;
43297;SDS011;28892;55.640;37.532;2023-08-24T09:30:52;8.57;;;7.63;;
43297;SDS011;28892;55.640;37.532;2023-08-24T09:33:20;8.75;;;7.90;;
43297;SDS011;28892;55.640;37.532;2023-08-24T09:35:54;8.63;;;7.72;;
43297;SDS011;28892;55.640;37.532;2023-08-24T09:38:27;9.82;;;7.85;;
43297;SDS011;28892;55.640;37.532;2023-08-24T09:40:54;10.98;;;8.07;;
43297;SDS011;28892;55.640;37.532;2023-08-24T09:43:21;8.60;;;7.70;;
43297;SDS011;28892;55.640;37.532;2023-08-24T09:45:48;9.73;;;8.73;;
43297;SDS011;28892;55.640;37.532;2023-08-24T09:48:18;9.07;;;7.93;;
43297;SDS011;28892;55.640;37.532;2023-08-24T09:50:49;9.02;;;8.07;;
43297;SDS011;28892;55.640;37.532;2023-08-24T09:53:16;9.98;;;9.07;;
43297;SDS011;28892;55.640;37.532;2023-08-24T09:55:47;12.02;;;8.95;;
43297;SDS011;28892;55.640;37.532;2023-08-24T09:58:18;9.43;;;7.70;;
43297;SDS011;28892;55.640;37.532;2023-08-24T10:00:45;10.25;;;9.18;;
43297;SDS011;28892;55.640;37.532;2023-08-24T10:03:15;10.68;;;8.90;;
43297;SDS011;28892;55.640;37.532;2023-08-24T10:05:48;9.75;;;8.82;;
43297;SDS011;28892;55.640;37.532;2023-08-24T10:08:19;8.95;;;7.63;;
43297;SDS011;28892;55.640;37.532;2023-08-24T10:10:48;9.98;;;8.90;;
43297;SDS011;28892;55.640;37.532;2023-08-24T10:13:23;9.60;;;8.70;;
43297;SDS011;28892;55.640;37.532;2023-08-24T10:16:03;9.68;;;8.80;;
43297;SDS011;28892;55.640;37.532;2023-08-24T10:18:30;9.55;;;8.65;;
43297;SDS011;28892;55.640;37.532;2023-08-24T10:20:57;12.32;;;7.90;;
43297;SDS011;28892;55.640;37.532;2023-08-24T10:23:23;15.75;;;8.55;;
43297;SDS011;28892;55.640;37.532;2023-08-24T10:25:50;9.52;;;7.35;;
43297;SDS011;28892;55.640;37.532;2023-08-24T10:28:18;10.80;;;8.75;;
43297;SDS011;28892;55.640;37.532;2023-08-24T10:30:46;9.70;;;8.13;;
43297;SDS011;28892;55.640;37.532;2023-08-24T10:33:13;12.93;;;10.07;;
43297;SDS011;28892;55.640;37.532;2023-08-24T10:36:03;11.75;;;9.50;;
43297;SDS011;28892;55.640;37.532;2023-08-24T10:38:30;12.25;;;10.40;;
43297;SDS011;28892;55.640;37.532;2023-08-24T10:41:01;13.43;;;10.55;;
43297;SDS011;28892;55.640;37.532;2023-08-24T10:43:29;12.05;;;10.52;;
43297;SDS011;28892;55.640;37.532;2023-08-24T10:55:05;13.75;;;11.77;;
43297;SDS011;28892;55.640;37.532;2023-08-24T10:57:56;11.27;;;10.18;;
43297;SDS011;28892;55.640;37.532;2023-08-24T11:00:26;11.52;;;10.43;;
43297;SDS011;28892;55.640;37.532;2023-08-24T11:02:55;12.02;;;10.48;;
43297;SDS011;28892;55.640;37.532;2023-08-24T11:05:25;11.95;;;10.85;;
43297;SDS011;28892;55.640;37.532;2023-08-24T11:21:20;12.85;;;10.02;;
43297;SDS011;28892;55.640;37.532;2023-08-24T11:23:50;11.63;;;10.43;;
43297;SDS011;28892;55.640;37.532;2023-08-24T11:30:40;12.25;;;11.05;;
43297;SDS011;28892;55.640;37.532;2023-08-24T11:33:12;12.63;;;10.55;;
43297;SDS011;28892;55.640;37.532;2023-08-24T11:42:02;11.07;;;9.73;;
43297;SDS011;28892;55.640;37.532;2023-08-24T11:48:49;10.40;;;9.30;;
43297;SDS011;28892;55.640;37.532;2023-08-24T11:52:04;14.02;;;10.43;;
43297;SDS011;28892;55.640;37.532;2023-08-24T12:06:26;7.75;;;6.82;;
43297;SDS011;28892;55.640;37.532;2023-08-24T12:12:29;10.63;;;7.05;;
43297;SDS011;28892;55.640;37.532;2023-08-24T12:14:59;10.32;;;7.25;;
43297;SDS011;28892;55.640;37.532;2023-08-24T12:17:43;7.85;;;6.55;;
43297;SDS011;28892;55.640;37.532;2023-08-24T12:21:01;9.02;;;6.60;;
43297;SDS011;28892;55.640;37.532;2023-08-24T12:23:43;9.02;;;6.25;;
43297;SDS011;28892;55.640;37.532;2023-08-24T12:29:12;7.10;;;6.15;;
43297;SDS011;28892;55.640;37.532;2023-08-24T12:31:42;7.25;;;6.18;;
43297;SDS011;28892;55.640;37.532;2023-08-24T12:34:20;7.53;;;5.65;;
43297;SDS011;28892;55.640;37.532;2023-08-24T12:37:44;8.30;;;5.03;;
43297;SDS011;28892;55.640;37.532;2023-08-24T12:40:18;5.95;;;5.07;;
43297;SDS011;28892;55.640;37.532;2023-08-24T12:43:00;5.75;;;5.05;;
43297;SDS011;28892;55.640;37.532;2023-08-24T12:45:47;6.43;;;5.05;;
43297;SDS011;28892;55.640;37.532;2023-08-24T12:48:47;6.47;;;4.90;;
43297;SDS011;28892;55.640;37.532;2023-08-24T12:51:22;5.53;;;4.82;;
43297;SDS011;28892;55.640;37.532;2023-08-24T12:54:00;6.40;;;4.88;;
43297;SDS011;28892;55.640;37.532;2023-08-24T12:57:09;6.57;;;4.47;;
43297;SDS011;28892;55.640;37.532;2023-08-24T12:59:35;5.38;;;4.10;;
43297;SDS011;28892;55.640;37.532;2023-08-24T13:02:04;8.50;;;4.15;;
43297;SDS011;28892;55.640;37.532;2023-08-24T13:04:30;6.60;;;4.40;;
43297;SDS011;28892;55.640;37.532;2023-08-24T13:06:58;5.95;;;4.50;;
43297;SDS011;28892;55.640;37.532;2023-08-24T13:09:24;4.78;;;3.85;;
43297;SDS011;28892;55.640;37.532;2023-08-24T13:12:00;5.28;;;4.25;;
43297;SDS011;28892;55.640;37.532;2023-08-24T13:14:26;3.85;;;3.45;;
43297;SDS011;28892;55.640;37.532;2023-08-24T13:17:04;4.85;;;3.72;;
43297;SDS011;28892;55.640;37.532;2023-08-24T13:19:33;6.32;;;4.18;;
43297;SDS011;28892;55.640;37.532;2023-08-24T13:21:59;5.18;;;3.33;;
43297;SDS011;28892;55.640;37.532;2023-08-24T13:24:31;6.10;;;3.75;;
43297;SDS011;28892;55.640;37.532;2023-08-24T13:27:09;7.68;;;4.28;;
43297;SDS011;28892;55.640;37.532;2023-08-24T13:29:41;6.00;;;3.70;;
43297;SDS011;28892;55.640;37.532;2023-08-24T13:32:40;5.25;;;4.00;;
43297;SDS011;28892;55.640;37.532;2023-08-24T13:35:50;5.22;;;4.10;;
43297;SDS011;28892;55.640;37.532;2023-08-24T13:38:16;3.20;;;2.90;;
43297;SDS011;28892;55.640;37.532;2023-08-24T13:40:58;6.53;;;2.95;;
43297;SDS011;28892;55.640;37.532;2023-08-24T13:43:27;5.18;;;2.92;;
43297;SDS011;28892;55.640;37.532;2023-08-24T13:45:54;4.43;;;3.20;;
43297;SDS011;28892;55.640;37.532;2023-08-24T13:51:28;5.25;;;2.92;;
43297;SDS011;28892;55.640;37.532;2023-08-24T13:54:11;7.22;;;2.90;;
43297;SDS011;28892;55.640;37.532;2023-08-24T13:56:47;3.88;;;2.97;;
43297;SDS011;28892;55.640;37.532;2023-08-24T13:59:14;5.28;;;2.95;;
43297;SDS011;28892;55.640;37.532;2023-08-24T14:01:40;3.95;;;3.20;;
43297;SDS011;28892;55.640;37.532;2023-08-24T14:04:07;6.13;;;3.10;;
43297;SDS011;28892;55.640;37.532;2023-08-24T14:06:34;5.20;;;2.83;;
43297;SDS011;28892;55.640;37.532;2023-08-24T14:09:03;9.50;;;3.53;;
43297;SDS011;28892;55.640;37.532;2023-08-24T14:11:37;5.10;;;2.92;;
43297;SDS011;28892;55.640;37.532;2023-08-24T14:14:03;5.30;;;3.40;;
43297;SDS011;28892;55.640;37.532;2023-08-24T14:16:29;3.70;;;2.33;;
43297;SDS011;28892;55.640;37.532;2023-08-24T14:18:55;5.05;;;2.80;;
43297;SDS011;28892;55.640;37.532;2023-08-24T14:21:21;4.25;;;2.88;;
43297;SDS011;28892;55.640;37.532;2023-08-24T14:23:49;4.60;;;2.72;;
43297;SDS011;28892;55.640;37.532;2023-08-24T14:26:15;6.72;;;2.72;;
43297;SDS011;28892;55.640;37.532;2023-08-24T14:28:52;4.13;;;2.85;;
43297;SDS011;28892;55.640;37.532;2023-08-24T14:31:21;6.15;;;2.70;;
43297;SDS011;28892;55.640;37.532;2023-08-24T14:33:51;5.38;;;3.20;;
43297;SDS011;28892;55.640;37.532;2023-08-24T14:36:22;7.93;;;5.25;;
43297;SDS011;28892;55.640;37.532;2023-08-24T14:42:11;14.20;;;11.02;;
43297;SDS011;28892;55.640;37.532;2023-08-24T14:44:39;11.65;;;7.35;;
43297;SDS011;28892;55.640;37.532;2023-08-24T14:47:05;8.30;;;5.40;;
43297;SDS011;28892;55.640;37.532;2023-08-24T14:49:31;7.47;;;4.90;;
43297;SDS011;28892;55.640;37.532;2023-08-24T14:51:56;5.80;;;4.78;;
43297;SDS011;28892;55.640;37.532;2023-08-24T14:54:22;6.32;;;5.18;;
43297;SDS011;28892;55.640;37.532;2023-08-24T14:56:48;7.00;;;4.43;;
43297;SDS011;28892;55.640;37.532;2023-08-24T14:59:14;8.40;;;3.53;;
43297;SDS011;28892;55.640;37.532;2023-08-24T15:01:40;6.72;;;3.60;;
43297;SDS011;28892;55.640;37.532;2023-08-24T15:04:05;7.22;;;3.63;;
43297;SDS011;28892;55.640;37.532;2023-08-24T15:06:31;5.47;;;3.45;;
43297;SDS011;28892;55.640;37.532;2023-08-24T15:08:57;4.97;;;3.45;;
43297;SDS011;28892;55.640;37.532;2023-08-24T15:11:24;5.15;;;3.15;;
43297;SDS011;28892;55.640;37.532;2023-08-24T15:13:50;6.53;;;3.90;;
43297;SDS011;28892;55.640;37.532;2023-08-24T15:16:16;5.82;;;3.20;;
43297;SDS011;28892;55.640;37.532;2023-08-24T15:18:46;4.93;;;3.30;;
43297;SDS011;28892;55.640;37.532;2023-08-24T15:21:12;3.90;;;3.10;;
43297;SDS011;28892;55.640;37.532;2023-08-24T15:23:40;4.30;;;2.80;;
43297;SDS011;28892;55.640;37.532;2023-08-24T15:26:06;4.30;;;3.30;;
43297;SDS011;28892;55.640;37.532;2023-08-24T15:28:36;6.10;;;2.78;;
43297;SDS011;28892;55.640;37.532;2023-08-24T15:31:03;4.18;;;2.97;;
43297;SDS011;28892;55.640;37.532;2023-08-24T15:33:29;4.78;;;2.50;;
43297;SDS011;28892;55.640;37.532;2023-08-24T15:35:55;5.88;;;2.63;;
43297;SDS011;28892;55.640;37.532;2023-08-24T15:38:21;3.30;;;2.60;;
43297;SDS011;28892;55.640;37.532;2023-08-24T15:40:51;3.25;;;2.83;;
43297;SDS011;28892;55.640;37.532;2023-08-24T15:43:18;4.15;;;2.35;;
43297;SDS011;28892;55.640;37.532;2023-08-24T15:45:45;5.70;;;2.80;;
43297;SDS011;28892;55.640;37.532;2023-08-24T15:48:14;3.53;;;2.60;;
43297;SDS011;28892;55.640;37.532;2023-08-24T15:50:40;5.50;;;3.38;;
43297;SDS011;28892;55.640;37.532;2023-08-24T15:53:05;5.97;;;3.33;;
43297;SDS011;28892;55.640;37.532;2023-08-24T15:55:32;6.80;;;3.83;;
43297;SDS011;28892;55.640;37.532;2023-08-24T15:57:58;5.63;;;3.78;;
43297;SDS011;28892;55.640;37.532;2023-08-24T16:00:27;5.38;;;3.28;;
43297;SDS011;28892;55.640;37.532;2023-08-24T16:03:03;4.90;;;3.55;;
43297;SDS011;28892;55.640;37.532;2023-08-24T16:05:29;3.65;;;2.92;;
43297;SDS011;28892;55.640;37.532;2023-08-24T16:07:58;4.90;;;3.67;;
43297;SDS011;28892;55.640;37.532;2023-08-24T16:10:24;7.97;;;2.72;;
43297;SDS011;28892;55.640;37.532;2023-08-24T16:12:50;5.97;;;3.35;;
43297;SDS011;28892;55.640;37.532;2023-08-24T16:15:15;5.80;;;3.47;;
43297;SDS011;28892;55.640;37.532;2023-08-24T16:17:42;5.72;;;4.35;;